GRZ582 Details

Departure: Fairbanks International Airport (PAFA)
Arrival: (PAGA)
Route: FAI J122 GAL


Current Weather Information
PAFA 250353Z VRB04KT 10SM FEW060 FEW180 16/01 A2977 RMK AO2 SLP085 T01560006
PAGA 250356Z AUTO 29004KT 10SM CLR 16/03 A2980 RMK AO2 SLP092 T01610028